sensor_id;sensor_type;location;lat;lon;timestamp;temperature;humidity
54431;DHT22;40342;52.998;5.862;2022-10-15T00:02:08;13.00;99.90
54431;DHT22;40342;52.998;5.862;2022-10-15T00:04:34;13.00;99.90
54431;DHT22;40342;52.998;5.862;2022-10-15T00:07:00;13.00;99.90
54431;DHT22;40342;52.998;5.862;2022-10-15T00:09:25;13.00;99.90
54431;DHT22;40342;52.998;5.862;2022-10-15T00:11:51;13.00;99.90
54431;DHT22;40342;52.998;5.862;2022-10-15T00:14:17;13.00;99.90
54431;DHT22;40342;52.998;5.862;2022-10-15T00:16:42;13.00;99.90
54431;DHT22;40342;52.998;5.862;2022-10-15T00:19:09;13.00;99.90
54431;DHT22;40342;52.998;5.862;2022-10-15T00:21:35;13.00;99.90
54431;DHT22;40342;52.998;5.862;2022-10-15T00:24:01;13.00;99.90
54431;DHT22;40342;52.998;5.862;2022-10-15T00:26:28;13.00;99.90
54431;DHT22;40342;52.998;5.862;2022-10-15T00:28:56;13.00;99.90
54431;DHT22;40342;52.998;5.862;2022-10-15T00:31:23;13.00;99.90
54431;DHT22;40342;52.998;5.862;2022-10-15T00:33:52;13.00;99.90
54431;DHT22;40342;52.998;5.862;2022-10-15T00:36:21;13.00;99.90
54431;DHT22;40342;52.998;5.862;2022-10-15T00:38:47;13.00;99.90
54431;DHT22;40342;52.998;5.862;2022-10-15T00:41:22;13.00;99.90
54431;DHT22;40342;52.998;5.862;2022-10-15T00:43:53;13.00;99.90
54431;DHT22;40342;52.998;5.862;2022-10-15T00:46:30;13.00;99.90
54431;DHT22;40342;52.998;5.862;2022-10-15T00:48:59;13.00;99.90
54431;DHT22;40342;52.998;5.862;2022-10-15T00:51:37;13.00;99.90
54431;DHT22;40342;52.998;5.862;2022-10-15T00:54:04;13.00;99.90
54431;DHT22;40342;52.998;5.862;2022-10-15T00:56:31;13.00;99.90
54431;DHT22;40342;52.998;5.862;2022-10-15T00:58:58;13.00;99.90
54431;DHT22;40342;52.998;5.862;2022-10-15T01:01:24;13.00;99.90
54431;DHT22;40342;52.998;5.862;2022-10-15T01:03:52;13.00;99.90
54431;DHT22;40342;52.998;5.862;2022-10-15T01:06:17;13.00;99.90
54431;DHT22;40342;52.998;5.862;2022-10-15T01:08:44;13.00;99.90
54431;DHT22;40342;52.998;5.862;2022-10-15T01:12:02;13.00;99.90
54431;DHT22;40342;52.998;5.862;2022-10-15T01:17:19;13.00;99.90
54431;DHT22;40342;52.998;5.862;2022-10-15T01:31:05;12.90;99.90
54431;DHT22;40342;52.998;5.862;2022-10-15T01:33:53;12.90;99.90
54431;DHT22;40342;52.998;5.862;2022-10-15T01:36:32;12.90;99.90
54431;DHT22;40342;52.998;5.862;2022-10-15T01:39:11;12.90;99.90
54431;DHT22;40342;52.998;5.862;2022-10-15T01:42:00;12.90;99.90
54431;DHT22;40342;52.998;5.862;2022-10-15T01:44:34;12.90;99.90
54431;DHT22;40342;52.998;5.862;2022-10-15T01:47:06;12.80;99.90
54431;DHT22;40342;52.998;5.862;2022-10-15T01:49:36;12.90;99.90
54431;DHT22;40342;52.998;5.862;2022-10-15T01:52:07;12.90;99.90
54431;DHT22;40342;52.998;5.862;2022-10-15T01:54:34;12.90;99.90
54431;DHT22;40342;52.998;5.862;2022-10-15T01:57:02;12.90;99.90
54431;DHT22;40342;52.998;5.862;2022-10-15T01:59:30;12.90;99.90
54431;DHT22;40342;52.998;5.862;2022-10-15T02:01:57;12.80;99.90
54431;DHT22;40342;52.998;5.862;2022-10-15T02:04:30;12.80;99.90
54431;DHT22;40342;52.998;5.862;2022-10-15T02:07:03;12.80;99.90
54431;DHT22;40342;52.998;5.862;2022-10-15T02:09:42;12.80;99.90
54431;DHT22;40342;52.998;5.862;2022-10-15T02:15:24;12.80;99.90
54431;DHT22;40342;52.998;5.862;2022-10-15T02:18:09;12.70;99.90
54431;DHT22;40342;52.998;5.862;2022-10-15T02:21:05;12.80;99.90
54431;DHT22;40342;52.998;5.862;2022-10-15T02:23:38;12.70;99.90
54431;DHT22;40342;52.998;5.862;2022-10-15T02:26:07;12.70;99.90
54431;DHT22;40342;52.998;5.862;2022-10-15T02:28:36;12.70;99.90
54431;DHT22;40342;52.998;5.862;2022-10-15T02:31:02;12.70;99.90
54431;DHT22;40342;52.998;5.862;2022-10-15T02:33:30;12.70;99.90
54431;DHT22;40342;52.998;5.862;2022-10-15T02:35:57;12.70;99.90
54431;DHT22;40342;52.998;5.862;2022-10-15T02:38:24;12.70;99.90
54431;DHT22;40342;52.998;5.862;2022-10-15T02:40:51;12.60;99.90
54431;DHT22;40342;52.998;5.862;2022-10-15T02:43:19;12.70;99.90
54431;DHT22;40342;52.998;5.862;2022-10-15T02:45:45;12.60;99.90
54431;DHT22;40342;52.998;5.862;2022-10-15T02:48:10;12.60;99.90
54431;DHT22;40342;52.998;5.862;2022-10-15T02:50:36;12.50;99.90
54431;DHT22;40342;52.998;5.862;2022-10-15T02:53:02;12.50;99.90
54431;DHT22;40342;52.998;5.862;2022-10-15T02:55:27;12.50;99.90
54431;DHT22;40342;52.998;5.862;2022-10-15T02:57:53;12.50;99.90
54431;DHT22;40342;52.998;5.862;2022-10-15T03:00:19;12.40;99.90
54431;DHT22;40342;52.998;5.862;2022-10-15T03:02:44;12.50;99.90
54431;DHT22;40342;52.998;5.862;2022-10-15T03:05:10;12.40;99.90
54431;DHT22;40342;52.998;5.862;2022-10-15T03:07:36;12.40;99.90
54431;DHT22;40342;52.998;5.862;2022-10-15T03:10:02;12.40;99.90
54431;DHT22;40342;52.998;5.862;2022-10-15T03:12:28;12.40;99.90
54431;DHT22;40342;52.998;5.862;2022-10-15T03:14:53;12.30;99.90
54431;DHT22;40342;52.998;5.862;2022-10-15T03:17:19;12.40;99.90
54431;DHT22;40342;52.998;5.862;2022-10-15T03:19:44;12.40;99.90
54431;DHT22;40342;52.998;5.862;2022-10-15T03:22:10;12.40;99.90
54431;DHT22;40342;52.998;5.862;2022-10-15T03:24:36;12.30;99.90
54431;DHT22;40342;52.998;5.862;2022-10-15T03:27:01;12.40;99.90
54431;DHT22;40342;52.998;5.862;2022-10-15T03:29:27;12.30;99.90
54431;DHT22;40342;52.998;5.862;2022-10-15T03:31:52;12.30;99.90
54431;DHT22;40342;52.998;5.862;2022-10-15T03:34:18;12.30;99.90
54431;DHT22;40342;52.998;5.862;2022-10-15T03:36:43;12.30;99.90
54431;DHT22;40342;52.998;5.862;2022-10-15T03:39:10;12.30;99.90
54431;DHT22;40342;52.998;5.862;2022-10-15T03:41:36;12.30;99.90
54431;DHT22;40342;52.998;5.862;2022-10-15T03:44:04;12.30;99.90
54431;DHT22;40342;52.998;5.862;2022-10-15T03:46:30;12.30;99.90
54431;DHT22;40342;52.998;5.862;2022-10-15T03:48:55;12.30;99.90
54431;DHT22;40342;52.998;5.862;2022-10-15T03:51:21;12.30;99.90
54431;DHT22;40342;52.998;5.862;2022-10-15T03:53:47;12.30;99.90
54431;DHT22;40342;52.998;5.862;2022-10-15T03:56:12;12.30;99.90
54431;DHT22;40342;52.998;5.862;2022-10-15T03:58:38;12.30;99.90
54431;DHT22;40342;52.998;5.862;2022-10-15T04:01:08;12.30;99.90
54431;DHT22;40342;52.998;5.862;2022-10-15T04:03:35;12.20;99.90
54431;DHT22;40342;52.998;5.862;2022-10-15T04:06:00;12.20;99.90
54431;DHT22;40342;52.998;5.862;2022-10-15T04:08:26;12.20;99.90
54431;DHT22;40342;52.998;5.862;2022-10-15T04:10:51;12.20;99.90
54431;DHT22;40342;52.998;5.862;2022-10-15T04:13:17;12.20;99.90
54431;DHT22;40342;52.998;5.862;2022-10-15T04:15:43;12.20;99.90
54431;DHT22;40342;52.998;5.862;2022-10-15T04:18:08;12.20;99.90
54431;DHT22;40342;52.998;5.862;2022-10-15T04:20:34;12.20;99.90
54431;DHT22;40342;52.998;5.862;2022-10-15T04:23:00;12.20;99.90
54431;DHT22;40342;52.998;5.862;2022-10-15T04:25:25;12.10;99.90
54431;DHT22;40342;52.998;5.862;2022-10-15T04:27:51;12.10;99.90
54431;DHT22;40342;52.998;5.862;2022-10-15T04:30:17;12.10;99.90
54431;DHT22;40342;52.998;5.862;2022-10-15T04:32:43;12.10;99.90
54431;DHT22;40342;52.998;5.862;2022-10-15T04:35:08;12.10;99.90
54431;DHT22;40342;52.998;5.862;2022-10-15T04:37:34;12.10;99.90
54431;DHT22;40342;52.998;5.862;2022-10-15T04:40:00;12.10;99.90
54431;DHT22;40342;52.998;5.862;2022-10-15T04:42:28;12.10;99.90
54431;DHT22;40342;52.998;5.862;2022-10-15T04:44:54;12.10;99.90
54431;DHT22;40342;52.998;5.862;2022-10-15T04:47:19;12.10;99.90
54431;DHT22;40342;52.998;5.862;2022-10-15T04:49:45;12.10;99.90
54431;DHT22;40342;52.998;5.862;2022-10-15T04:52:10;12.10;99.90
54431;DHT22;40342;52.998;5.862;2022-10-15T04:54:36;12.00;99.90
54431;DHT22;40342;52.998;5.862;2022-10-15T04:57:03;12.00;99.90
54431;DHT22;40342;52.998;5.862;2022-10-15T04:59:28;12.00;99.90
54431;DHT22;40342;52.998;5.862;2022-10-15T05:01:54;12.00;99.90
54431;DHT22;40342;52.998;5.862;2022-10-15T05:04:19;12.00;99.90
54431;DHT22;40342;52.998;5.862;2022-10-15T05:06:45;12.00;99.90
54431;DHT22;40342;52.998;5.862;2022-10-15T05:09:10;12.00;99.90
54431;DHT22;40342;52.998;5.862;2022-10-15T05:11:36;12.00;99.90
54431;DHT22;40342;52.998;5.862;2022-10-15T05:14:02;12.00;99.90
54431;DHT22;40342;52.998;5.862;2022-10-15T05:16:29;12.00;99.90
54431;DHT22;40342;52.998;5.862;2022-10-15T05:19:06;12.00;99.90
54431;DHT22;40342;52.998;5.862;2022-10-15T05:21:33;11.90;99.90
54431;DHT22;40342;52.998;5.862;2022-10-15T05:24:00;11.90;99.90
54431;DHT22;40342;52.998;5.862;2022-10-15T05:26:27;11.90;99.90
54431;DHT22;40342;52.998;5.862;2022-10-15T05:28:55;11.90;99.90
54431;DHT22;40342;52.998;5.862;2022-10-15T05:31:22;12.00;99.90
54431;DHT22;40342;52.998;5.862;2022-10-15T05:33:49;11.90;99.90
54431;DHT22;40342;52.998;5.862;2022-10-15T05:38:47;11.90;99.90
54431;DHT22;40342;52.998;5.862;2022-10-15T05:41:13;11.90;99.90
54431;DHT22;40342;52.998;5.862;2022-10-15T05:43:39;11.90;99.90
54431;DHT22;40342;52.998;5.862;2022-10-15T05:46:05;11.90;99.90
54431;DHT22;40342;52.998;5.862;2022-10-15T05:48:31;11.90;99.90
54431;DHT22;40342;52.998;5.862;2022-10-15T05:51:15;12.00;99.90
54431;DHT22;40342;52.998;5.862;2022-10-15T05:53:40;12.00;99.90
54431;DHT22;40342;52.998;5.862;2022-10-15T05:56:08;11.90;99.90
54431;DHT22;40342;52.998;5.862;2022-10-15T05:58:35;11.90;99.90
54431;DHT22;40342;52.998;5.862;2022-10-15T06:01:02;12.00;99.90
54431;DHT22;40342;52.998;5.862;2022-10-15T06:03:29;12.00;99.90
54431;DHT22;40342;52.998;5.862;2022-10-15T06:05:54;11.90;99.90
54431;DHT22;40342;52.998;5.862;2022-10-15T06:08:21;11.90;99.90
54431;DHT22;40342;52.998;5.862;2022-10-15T06:10:47;12.00;99.90
54431;DHT22;40342;52.998;5.862;2022-10-15T06:13:13;12.00;99.90
54431;DHT22;40342;52.998;5.862;2022-10-15T06:15:40;12.00;99.90
54431;DHT22;40342;52.998;5.862;2022-10-15T06:18:06;12.00;99.90
54431;DHT22;40342;52.998;5.862;2022-10-15T06:20:32;12.10;99.90
54431;DHT22;40342;52.998;5.862;2022-10-15T06:22:59;12.10;99.90
54431;DHT22;40342;52.998;5.862;2022-10-15T06:25:25;12.00;99.90
54431;DHT22;40342;52.998;5.862;2022-10-15T06:27:51;12.10;99.90
54431;DHT22;40342;52.998;5.862;2022-10-15T06:30:17;12.10;99.90
54431;DHT22;40342;52.998;5.862;2022-10-15T06:32:50;12.10;99.90
54431;DHT22;40342;52.998;5.862;2022-10-15T06:35:16;12.10;99.90
54431;DHT22;40342;52.998;5.862;2022-10-15T06:37:42;12.10;99.90
54431;DHT22;40342;52.998;5.862;2022-10-15T06:40:09;12.10;99.90
54431;DHT22;40342;52.998;5.862;2022-10-15T06:42:35;12.10;99.90
54431;DHT22;40342;52.998;5.862;2022-10-15T06:45:00;12.10;99.90
54431;DHT22;40342;52.998;5.862;2022-10-15T06:47:26;12.10;99.90
54431;DHT22;40342;52.998;5.862;2022-10-15T06:49:51;12.10;99.90
54431;DHT22;40342;52.998;5.862;2022-10-15T06:52:17;12.10;99.90
54431;DHT22;40342;52.998;5.862;2022-10-15T06:54:43;12.20;99.90
54431;DHT22;40342;52.998;5.862;2022-10-15T06:57:08;12.10;99.90
54431;DHT22;40342;52.998;5.862;2022-10-15T06:59:34;12.10;99.90
54431;DHT22;40342;52.998;5.862;2022-10-15T07:01:59;12.10;99.90
54431;DHT22;40342;52.998;5.862;2022-10-15T07:04:25;12.20;99.90
54431;DHT22;40342;52.998;5.862;2022-10-15T07:06:50;12.20;99.90
54431;DHT22;40342;52.998;5.862;2022-10-15T07:09:16;12.20;99.90
54431;DHT22;40342;52.998;5.862;2022-10-15T07:11:42;12.20;99.90
54431;DHT22;40342;52.998;5.862;2022-10-15T07:14:07;12.20;99.90
54431;DHT22;40342;52.998;5.862;2022-10-15T07:16:33;12.20;99.90
54431;DHT22;40342;52.998;5.862;2022-10-15T07:18:58;12.20;99.90
54431;DHT22;40342;52.998;5.862;2022-10-15T07:21:24;12.20;99.90
54431;DHT22;40342;52.998;5.862;2022-10-15T07:23:50;12.30;99.90
54431;DHT22;40342;52.998;5.862;2022-10-15T07:26:16;12.30;99.90
54431;DHT22;40342;52.998;5.862;2022-10-15T07:28:41;12.30;99.90
54431;DHT22;40342;52.998;5.862;2022-10-15T07:31:07;12.40;99.90
54431;DHT22;40342;52.998;5.862;2022-10-15T07:33:33;12.40;99.90
54431;DHT22;40342;52.998;5.862;2022-10-15T07:36:04;12.40;99.90
54431;DHT22;40342;52.998;5.862;2022-10-15T07:38:31;12.50;99.90
54431;DHT22;40342;52.998;5.862;2022-10-15T07:40:58;12.50;99.90
54431;DHT22;40342;52.998;5.862;2022-10-15T07:43:23;12.50;99.90
54431;DHT22;40342;52.998;5.862;2022-10-15T07:45:49;12.60;99.90
54431;DHT22;40342;52.998;5.862;2022-10-15T07:48:15;12.60;99.90
54431;DHT22;40342;52.998;5.862;2022-10-15T07:50:41;12.60;99.90
54431;DHT22;40342;52.998;5.862;2022-10-15T07:53:06;12.60;99.90
54431;DHT22;40342;52.998;5.862;2022-10-15T07:55:32;12.60;99.90
54431;DHT22;40342;52.998;5.862;2022-10-15T07:57:58;12.60;99.90
54431;DHT22;40342;52.998;5.862;2022-10-15T08:00:23;12.70;99.90
54431;DHT22;40342;52.998;5.862;2022-10-15T08:02:49;12.70;99.90
54431;DHT22;40342;52.998;5.862;2022-10-15T08:05:15;12.70;99.90
54431;DHT22;40342;52.998;5.862;2022-10-15T08:07:40;12.80;99.90
54431;DHT22;40342;52.998;5.862;2022-10-15T08:10:07;12.80;99.90
54431;DHT22;40342;52.998;5.862;2022-10-15T08:12:33;12.80;99.90
54431;DHT22;40342;52.998;5.862;2022-10-15T08:14:58;12.80;99.90
54431;DHT22;40342;52.998;5.862;2022-10-15T08:17:24;12.80;99.90
54431;DHT22;40342;52.998;5.862;2022-10-15T08:19:49;12.80;99.90
54431;DHT22;40342;52.998;5.862;2022-10-15T08:22:15;12.80;99.90
54431;DHT22;40342;52.998;5.862;2022-10-15T08:24:41;12.90;99.90
54431;DHT22;40342;52.998;5.862;2022-10-15T08:27:06;12.80;99.90
54431;DHT22;40342;52.998;5.862;2022-10-15T08:29:32;12.80;99.90
54431;DHT22;40342;52.998;5.862;2022-10-15T08:31:57;12.80;99.90
54431;DHT22;40342;52.998;5.862;2022-10-15T08:34:23;13.40;99.90
54431;DHT22;40342;52.998;5.862;2022-10-15T08:36:49;12.80;99.90
54431;DHT22;40342;52.998;5.862;2022-10-15T08:39:14;12.80;99.90
54431;DHT22;40342;52.998;5.862;2022-10-15T08:41:44;12.80;99.90
54431;DHT22;40342;52.998;5.862;2022-10-15T08:46:53;12.80;99.90
54431;DHT22;40342;52.998;5.862;2022-10-15T08:49:42;12.90;99.90
54431;DHT22;40342;52.998;5.862;2022-10-15T08:52:20;12.90;99.90
54431;DHT22;40342;52.998;5.862;2022-10-15T08:54:48;12.90;99.90
54431;DHT22;40342;52.998;5.862;2022-10-15T08:57:27;12.90;99.90
54431;DHT22;40342;52.998;5.862;2022-10-15T09:00:19;12.90;99.90
54431;DHT22;40342;52.998;5.862;2022-10-15T09:02:53;12.90;99.90
54431;DHT22;40342;52.998;5.862;2022-10-15T09:14:13;12.90;99.90
54431;DHT22;40342;52.998;5.862;2022-10-15T09:16:40;12.80;99.90
54431;DHT22;40342;52.998;5.862;2022-10-15T09:19:20;12.90;99.90
54431;DHT22;40342;52.998;5.862;2022-10-15T09:21:50;12.90;99.90
54431;DHT22;40342;52.998;5.862;2022-10-15T09:24:24;12.90;99.90
54431;DHT22;40342;52.998;5.862;2022-10-15T09:27:13;12.90;99.90
54431;DHT22;40342;52.998;5.862;2022-10-15T09:29:47;12.90;99.90
54431;DHT22;40342;52.998;5.862;2022-10-15T09:32:34;13.00;99.90
54431;DHT22;40342;52.998;5.862;2022-10-15T09:35:05;13.00;99.90
54431;DHT22;40342;52.998;5.862;2022-10-15T09:37:53;13.00;99.90
54431;DHT22;40342;52.998;5.862;2022-10-15T09:42:56;13.00;99.90
54431;DHT22;40342;52.998;5.862;2022-10-15T09:45:22;13.00;99.90
54431;DHT22;40342;52.998;5.862;2022-10-15T09:47:55;13.00;99.90
54431;DHT22;40342;52.998;5.862;2022-10-15T09:50:21;13.00;99.90
54431;DHT22;40342;52.998;5.862;2022-10-15T09:58:23;13.10;99.90
54431;DHT22;40342;52.998;5.862;2022-10-15T10:03:17;13.10;99.90
54431;DHT22;40342;52.998;5.862;2022-10-15T10:05:43;13.20;99.90
54431;DHT22;40342;52.998;5.862;2022-10-15T10:08:21;13.20;99.90
54431;DHT22;40342;52.998;5.862;2022-10-15T10:10:58;13.30;99.90
54431;DHT22;40342;52.998;5.862;2022-10-15T10:13:31;13.30;99.90
54431;DHT22;40342;52.998;5.862;2022-10-15T10:16:09;13.30;99.90
54431;DHT22;40342;52.998;5.862;2022-10-15T10:18:35;13.30;99.90
54431;DHT22;40342;52.998;5.862;2022-10-15T10:21:06;13.40;99.90
54431;DHT22;40342;52.998;5.862;2022-10-15T10:23:44;13.50;99.90
54431;DHT22;40342;52.998;5.862;2022-10-15T10:26:10;13.50;99.90
54431;DHT22;40342;52.998;5.862;2022-10-15T10:28:54;13.50;99.90
54431;DHT22;40342;52.998;5.862;2022-10-15T10:31:28;13.50;99.90
54431;DHT22;40342;52.998;5.862;2022-10-15T10:33:55;13.60;99.90
54431;DHT22;40342;52.998;5.862;2022-10-15T10:36:29;13.60;99.90
54431;DHT22;40342;52.998;5.862;2022-10-15T10:44:20;13.80;99.90
54431;DHT22;40342;52.998;5.862;2022-10-15T10:47:18;13.80;99.90
54431;DHT22;40342;52.998;5.862;2022-10-15T10:49:51;13.90;99.90
54431;DHT22;40342;52.998;5.862;2022-10-15T10:54:52;13.90;99.90
54431;DHT22;40342;52.998;5.862;2022-10-15T10:57:28;14.00;99.90
54431;DHT22;40342;52.998;5.862;2022-10-15T10:59:56;14.00;99.90
54431;DHT22;40342;52.998;5.862;2022-10-15T11:02:22;14.00;99.90
54431;DHT22;40342;52.998;5.862;2022-10-15T11:04:48;14.10;99.90
54431;DHT22;40342;52.998;5.862;2022-10-15T11:07:28;14.10;99.90
54431;DHT22;40342;52.998;5.862;2022-10-15T11:13:04;14.20;99.90
54431;DHT22;40342;52.998;5.862;2022-10-15T11:15:58;14.20;99.90
54431;DHT22;40342;52.998;5.862;2022-10-15T11:18:47;14.30;99.90
54431;DHT22;40342;52.998;5.862;2022-10-15T11:29:02;14.50;99.90
54431;DHT22;40342;52.998;5.862;2022-10-15T11:34:34;14.60;99.90
54431;DHT22;40342;52.998;5.862;2022-10-15T11:42:23;14.80;99.90
54431;DHT22;40342;52.998;5.862;2022-10-15T11:47:58;14.90;99.90
54431;DHT22;40342;52.998;5.862;2022-10-15T11:50:42;14.80;99.90
54431;DHT22;40342;52.998;5.862;2022-10-15T11:58:31;14.90;99.90
54431;DHT22;40342;52.998;5.862;2022-10-15T12:01:02;14.90;99.90
54431;DHT22;40342;52.998;5.862;2022-10-15T12:03:30;15.00;99.90
54431;DHT22;40342;52.998;5.862;2022-10-15T12:06:04;15.00;99.90
54431;DHT22;40342;52.998;5.862;2022-10-15T12:08:33;15.00;99.90
54431;DHT22;40342;52.998;5.862;2022-10-15T12:11:06;15.00;99.90
54431;DHT22;40342;52.998;5.862;2022-10-15T12:13:42;15.00;99.90
54431;DHT22;40342;52.998;5.862;2022-10-15T12:16:36;15.00;99.90
54431;DHT22;40342;52.998;5.862;2022-10-15T12:19:28;15.00;99.90
54431;DHT22;40342;52.998;5.862;2022-10-15T12:32:42;14.90;99.90
54431;DHT22;40342;52.998;5.862;2022-10-15T12:37:44;14.80;99.90
54431;DHT22;40342;52.998;5.862;2022-10-15T12:40:25;14.80;99.90
54431;DHT22;40342;52.998;5.862;2022-10-15T12:42:59;14.80;99.90
54431;DHT22;40342;52.998;5.862;2022-10-15T12:45:36;14.80;99.90
54431;DHT22;40342;52.998;5.862;2022-10-15T12:50:30;14.80;99.90
54431;DHT22;40342;52.998;5.862;2022-10-15T12:55:31;14.80;99.90
54431;DHT22;40342;52.998;5.862;2022-10-15T13:00:43;14.70;99.90
54431;DHT22;40342;52.998;5.862;2022-10-15T13:03:23;14.70;99.90
54431;DHT22;40342;52.998;5.862;2022-10-15T13:05:49;14.70;99.90
54431;DHT22;40342;52.998;5.862;2022-10-15T13:08:20;14.70;99.90
54431;DHT22;40342;52.998;5.862;2022-10-15T13:10:58;14.70;99.90
54431;DHT22;40342;52.998;5.862;2022-10-15T13:13:27;14.70;99.90
54431;DHT22;40342;52.998;5.862;2022-10-15T13:15:59;14.60;99.90
54431;DHT22;40342;52.998;5.862;2022-10-15T13:18:28;14.70;99.90
54431;DHT22;40342;52.998;5.862;2022-10-15T13:20:54;14.70;99.90
54431;DHT22;40342;52.998;5.862;2022-10-15T13:23:27;14.70;99.90
54431;DHT22;40342;52.998;5.862;2022-10-15T13:26:19;14.70;99.90
54431;DHT22;40342;52.998;5.862;2022-10-15T13:28:49;14.70;99.90
54431;DHT22;40342;52.998;5.862;2022-10-15T13:31:30;14.70;99.90
54431;DHT22;40342;52.998;5.862;2022-10-15T13:34:29;14.70;99.90
54431;DHT22;40342;52.998;5.862;2022-10-15T13:36:55;14.70;99.90
54431;DHT22;40342;52.998;5.862;2022-10-15T13:39:26;14.70;99.90
54431;DHT22;40342;52.998;5.862;2022-10-15T13:44:38;14.60;99.90
54431;DHT22;40342;52.998;5.862;2022-10-15T13:47:25;14.60;99.90
54431;DHT22;40342;52.998;5.862;2022-10-15T13:50:08;14.70;99.90
54431;DHT22;40342;52.998;5.862;2022-10-15T13:52:36;14.70;99.90
54431;DHT22;40342;52.998;5.862;2022-10-15T13:55:02;14.60;99.90
54431;DHT22;40342;52.998;5.862;2022-10-15T13:57:28;14.70;99.90
54431;DHT22;40342;52.998;5.862;2022-10-15T13:59:54;14.70;99.90
54431;DHT22;40342;52.998;5.862;2022-10-15T14:02:19;14.70;99.90
54431;DHT22;40342;52.998;5.862;2022-10-15T14:04:45;14.70;99.90
54431;DHT22;40342;52.998;5.862;2022-10-15T14:07:21;14.70;99.90
54431;DHT22;40342;52.998;5.862;2022-10-15T14:09:47;14.70;99.90
54431;DHT22;40342;52.998;5.862;2022-10-15T14:12:13;14.70;99.90
54431;DHT22;40342;52.998;5.862;2022-10-15T14:14:41;14.70;99.90
54431;DHT22;40342;52.998;5.862;2022-10-15T14:19:49;14.70;99.90
54431;DHT22;40342;52.998;5.862;2022-10-15T14:22:18;14.70;99.90
54431;DHT22;40342;52.998;5.862;2022-10-15T14:24:49;14.70;99.90
54431;DHT22;40342;52.998;5.862;2022-10-15T14:27:19;14.70;99.90
54431;DHT22;40342;52.998;5.862;2022-10-15T14:29:56;14.70;99.90
54431;DHT22;40342;52.998;5.862;2022-10-15T14:32:27;14.70;99.90
54431;DHT22;40342;52.998;5.862;2022-10-15T14:34:58;14.70;99.90
54431;DHT22;40342;52.998;5.862;2022-10-15T14:42:41;14.70;99.90
54431;DHT22;40342;52.998;5.862;2022-10-15T14:48:19;14.70;99.90
54431;DHT22;40342;52.998;5.862;2022-10-15T14:50:46;14.70;99.90
54431;DHT22;40342;52.998;5.862;2022-10-15T14:53:19;14.70;99.90
54431;DHT22;40342;52.998;5.862;2022-10-15T14:55:51;14.80;99.90
54431;DHT22;40342;52.998;5.862;2022-10-15T14:58:19;14.80;99.90
54431;DHT22;40342;52.998;5.862;2022-10-15T15:00:47;14.80;99.90
54431;DHT22;40342;52.998;5.862;2022-10-15T15:03:41;14.80;99.90
54431;DHT22;40342;52.998;5.862;2022-10-15T15:06:08;14.90;99.90
54431;DHT22;40342;52.998;5.862;2022-10-15T15:08:34;15.00;99.90
54431;DHT22;40342;52.998;5.862;2022-10-15T15:11:02;15.10;99.90
54431;DHT22;40342;52.998;5.862;2022-10-15T15:13:30;15.10;99.90
54431;DHT22;40342;52.998;5.862;2022-10-15T15:15:56;15.20;99.90
54431;DHT22;40342;52.998;5.862;2022-10-15T15:18:22;15.30;99.90
54431;DHT22;40342;52.998;5.862;2022-10-15T15:20:49;15.40;99.90
54431;DHT22;40342;52.998;5.862;2022-10-15T15:23:25;15.30;99.90
54431;DHT22;40342;52.998;5.862;2022-10-15T15:25:52;15.40;99.90
54431;DHT22;40342;52.998;5.862;2022-10-15T15:28:20;15.30;99.90
54431;DHT22;40342;52.998;5.862;2022-10-15T15:30:53;15.20;99.90
54431;DHT22;40342;52.998;5.862;2022-10-15T15:33:19;15.20;99.90
54431;DHT22;40342;52.998;5.862;2022-10-15T15:35:54;15.10;99.90
54431;DHT22;40342;52.998;5.862;2022-10-15T15:38:22;15.10;99.90
54431;DHT22;40342;52.998;5.862;2022-10-15T15:40:48;15.20;99.90
54431;DHT22;40342;52.998;5.862;2022-10-15T15:43:16;15.10;99.90
54431;DHT22;40342;52.998;5.862;2022-10-15T15:45:42;15.10;99.90
54431;DHT22;40342;52.998;5.862;2022-10-15T15:48:08;15.00;99.90
54431;DHT22;40342;52.998;5.862;2022-10-15T15:50:34;14.90;99.90
54431;DHT22;40342;52.998;5.862;2022-10-15T15:53:00;14.90;99.90
54431;DHT22;40342;52.998;5.862;2022-10-15T15:55:27;14.80;99.90
54431;DHT22;40342;52.998;5.862;2022-10-15T15:57:52;14.80;99.90
54431;DHT22;40342;52.998;5.862;2022-10-15T16:00:18;14.70;99.90
54431;DHT22;40342;52.998;5.862;2022-10-15T16:02:44;14.70;99.90
54431;DHT22;40342;52.998;5.862;2022-10-15T16:05:14;14.70;99.90
54431;DHT22;40342;52.998;5.862;2022-10-15T16:07:40;14.60;99.90
54431;DHT22;40342;52.998;5.862;2022-10-15T16:10:06;14.60;99.90
54431;DHT22;40342;52.998;5.862;2022-10-15T16:12:36;14.60;99.90
54431;DHT22;40342;52.998;5.862;2022-10-15T16:15:02;14.60;99.90
54431;DHT22;40342;52.998;5.862;2022-10-15T16:17:28;14.50;99.90
54431;DHT22;40342;52.998;5.862;2022-10-15T16:19:53;14.50;99.90
54431;DHT22;40342;52.998;5.862;2022-10-15T16:22:19;14.50;99.90
54431;DHT22;40342;52.998;5.862;2022-10-15T16:24:44;14.40;99.90
54431;DHT22;40342;52.998;5.862;2022-10-15T16:27:10;14.40;99.90
54431;DHT22;40342;52.998;5.862;2022-10-15T16:29:36;14.30;99.90
54431;DHT22;40342;52.998;5.862;2022-10-15T16:32:01;14.30;99.90
54431;DHT22;40342;52.998;5.862;2022-10-15T16:34:27;14.30;99.90
54431;DHT22;40342;52.998;5.862;2022-10-15T16:36:53;14.20;99.90
54431;DHT22;40342;52.998;5.862;2022-10-15T16:39:18;14.20;99.90
54431;DHT22;40342;52.998;5.862;2022-10-15T16:41:44;14.10;99.90
54431;DHT22;40342;52.998;5.862;2022-10-15T16:44:09;14.00;99.90
54431;DHT22;40342;52.998;5.862;2022-10-15T16:46:35;14.00;99.90
54431;DHT22;40342;52.998;5.862;2022-10-15T16:49:01;13.90;99.90
54431;DHT22;40342;52.998;5.862;2022-10-15T16:51:26;13.90;99.90
54431;DHT22;40342;52.998;5.862;2022-10-15T16:53:52;13.90;99.90
54431;DHT22;40342;52.998;5.862;2022-10-15T16:56:24;13.80;99.90
54431;DHT22;40342;52.998;5.862;2022-10-15T16:58:50;13.80;99.90
54431;DHT22;40342;52.998;5.862;2022-10-15T17:01:18;13.80;99.90
54431;DHT22;40342;52.998;5.862;2022-10-15T17:03:45;13.80;99.90
54431;DHT22;40342;52.998;5.862;2022-10-15T17:06:16;13.80;99.90
54431;DHT22;40342;52.998;5.862;2022-10-15T17:08:46;13.80;99.90
54431;DHT22;40342;52.998;5.862;2022-10-15T17:11:14;13.70;99.90
54431;DHT22;40342;52.998;5.862;2022-10-15T17:13:41;13.70;99.90
54431;DHT22;40342;52.998;5.862;2022-10-15T17:18:37;13.60;99.90
54431;DHT22;40342;52.998;5.862;2022-10-15T17:21:03;13.60;99.90
54431;DHT22;40342;52.998;5.862;2022-10-15T17:23:29;13.60;99.90
54431;DHT22;40342;52.998;5.862;2022-10-15T17:25:55;13.60;99.90
54431;DHT22;40342;52.998;5.862;2022-10-15T17:28:21;13.50;99.90
54431;DHT22;40342;52.998;5.862;2022-10-15T17:30:46;13.50;99.90
54431;DHT22;40342;52.998;5.862;2022-10-15T17:33:12;13.50;99.90
54431;DHT22;40342;52.998;5.862;2022-10-15T17:35:37;13.50;99.90
54431;DHT22;40342;52.998;5.862;2022-10-15T17:38:03;13.40;99.90